LOG76C EGPN-EGAE
Flight info
| Callsign | LOG76C |
|---|---|
| Flight time | N/A |
| Altitude | 20000 |
| Route | IBOLU DCT FINDO P600 TRN N562 MAC DCT EGT |
| Aircraft | SF34/M-SDFGR/S |
Departure
| Time | 2026-04-16 14:06 |
|---|---|
| Airport | Dundee Airport (EGPN) |
Arrival
| Time | N/A |
|---|---|
| Airport | City of Derry Airport (EGAE) |
| Time | Latitude | Longitude | Altitude | Speed | Heading |
|---|---|---|---|---|---|
| 2026-04-16 13:47 | 56.45366 | -3.01465 | 14 ft | 0 kts | 1° |
| 2026-04-16 13:58 | 56.45333 | -3.01475 | 14 ft | 3 kts | 36° |
| 2026-04-16 13:58 | 56.45322 | -3.01496 | 14 ft | 3 kts | 84° |
| 2026-04-16 13:58 | 56.45322 | -3.01513 | 14 ft | 1 kts | 94° |
| 2026-04-16 13:58 | 56.45322 | -3.01515 | 14 ft | 0 kts | 94° |
| 2026-04-16 14:03 | 56.45319 | -3.01478 | 15 ft | 10 kts | 116° |
| 2026-04-16 14:03 | 56.45283 | -3.01459 | 15 ft | 0 kts | 179° |
| 2026-04-16 14:04 | 56.45237 | -3.01459 | 15 ft | 5 kts | 191° |
| 2026-04-16 14:04 | 56.45235 | -3.01509 | 16 ft | 0 kts | 266° |
| 2026-04-16 14:05 | 56.45234 | -3.01509 | 16 ft | 0 kts | 266° |
| 2026-04-16 14:05 | 56.45234 | -3.01591 | 16 ft | 29 kts | 272° |
| 2026-04-16 14:06 | 56.45238 | -3.02535 | 32 ft | 116 kts | 268° |
| 2026-04-16 14:06 | 56.45224 | -3.04200 | 602 ft | 144 kts | 267° |
| 2026-04-16 14:06 | 56.45242 | -3.06059 | 1523 ft | 151 kts | 269° |
| 2026-04-16 14:06 | 56.45288 | -3.07863 | 2736 ft | 144 kts | 269° |
| 2026-04-16 14:07 | 56.45355 | -3.09706 | 3770 ft | 146 kts | 269° |
| 2026-04-16 14:07 | 56.45433 | -3.11558 | 4779 ft | 154 kts | 269° |
| 2026-04-16 14:07 | 56.45508 | -3.13738 | 5200 ft | 193 kts | 269° |
| 2026-04-16 14:07 | 56.45293 | -3.16293 | 5203 ft | 225 kts | 244° |
| 2026-04-16 14:08 | 56.44185 | -3.18285 | 5765 ft | 227 kts | 210° |
| 2026-04-16 14:08 | 56.42631 | -3.18772 | 6500 ft | 229 kts | 176° |
| 2026-04-16 14:08 | 56.41289 | -3.17509 | 7758 ft | 222 kts | 142° |
| 2026-04-16 14:08 | 56.40094 | -3.15748 | 8526 ft | 221 kts | 163° |
| 2026-04-16 14:09 | 56.38627 | -3.15518 | 9394 ft | 209 kts | 199° |
| 2026-04-16 14:09 | 56.37443 | -3.16887 | 10256 ft | 203 kts | 234° |
| 2026-04-16 14:09 | 56.36993 | -3.19246 | 11170 ft | 204 kts | 267° |
| 2026-04-16 14:09 | 56.37445 | -3.21699 | 12051 ft | 215 kts | 296° |
| 2026-04-16 14:10 | 56.38139 | -3.24037 | 12822 ft | 208 kts | 277° |
| 2026-04-16 14:10 | 56.38065 | -3.26582 | 13659 ft | 204 kts | 257° |
| 2026-04-16 14:10 | 56.37815 | -3.29114 | 14502 ft | 205 kts | 260° |
| 2026-04-16 14:10 | 56.37670 | -3.31681 | 15378 ft | 206 kts | 264° |
| 2026-04-16 14:11 | 56.37558 | -3.34267 | 16188 ft | 208 kts | 263° |
| 2026-04-16 14:11 | 56.37413 | -3.36860 | 16972 ft | 208 kts | 263° |
| 2026-04-16 14:11 | 56.37278 | -3.39475 | 17680 ft | 210 kts | 264° |
| 2026-04-16 14:11 | 56.37144 | -3.42066 | 18380 ft | 210 kts | 264° |
| 2026-04-16 14:12 | 56.36836 | -3.44637 | 19010 ft | 212 kts | 251° |
| 2026-04-16 14:12 | 56.36098 | -3.46972 | 19619 ft | 219 kts | 238° |
| 2026-04-16 14:12 | 56.34958 | -3.48938 | 19915 ft | 241 kts | 223° |
| 2026-04-16 14:12 | 56.33512 | -3.50663 | 19938 ft | 252 kts | 224° |
| 2026-04-16 14:13 | 56.32121 | -3.52556 | 19944 ft | 249 kts | 225° |
| 2026-04-16 14:13 | 56.30705 | -3.54397 | 19949 ft | 251 kts | 223° |
| 2026-04-16 14:13 | 56.29275 | -3.56191 | 19953 ft | 250 kts | 224° |
| 2026-04-16 14:13 | 56.27865 | -3.58038 | 19955 ft | 250 kts | 224° |
| 2026-04-16 14:14 | 56.26468 | -3.59829 | 19957 ft | 249 kts | 224° |
| 2026-04-16 14:14 | 56.25055 | -3.61644 | 19959 ft | 249 kts | 224° |
| 2026-04-16 14:14 | 56.23646 | -3.63461 | 19957 ft | 249 kts | 224° |
| 2026-04-16 14:14 | 56.22229 | -3.65275 | 19955 ft | 250 kts | 224° |
| 2026-04-16 14:15 | 56.20814 | -3.67084 | 19956 ft | 250 kts | 224° |
| 2026-04-16 14:15 | 56.19394 | -3.68893 | 19956 ft | 250 kts | 224° |
| 2026-04-16 14:15 | 56.17978 | -3.70707 | 19956 ft | 250 kts | 224° |
| 2026-04-16 14:15 | 56.16561 | -3.72521 | 19956 ft | 250 kts | 224° |
| 2026-04-16 14:16 | 56.15143 | -3.74325 | 19955 ft | 250 kts | 224° |
| 2026-04-16 14:16 | 56.13744 | -3.76110 | 19957 ft | 250 kts | 224° |
| 2026-04-16 14:16 | 56.12311 | -3.77937 | 19957 ft | 250 kts | 224° |
| 2026-04-16 14:16 | 56.10910 | -3.79717 | 19957 ft | 250 kts | 224° |
| 2026-04-16 14:17 | 56.09491 | -3.81522 | 19957 ft | 250 kts | 224° |
| 2026-04-16 14:17 | 56.08073 | -3.83325 | 19957 ft | 250 kts | 224° |
| 2026-04-16 14:17 | 56.06652 | -3.85126 | 19957 ft | 250 kts | 224° |
| 2026-04-16 14:17 | 56.05232 | -3.86927 | 19957 ft | 250 kts | 224° |
| 2026-04-16 14:18 | 56.03814 | -3.88723 | 19958 ft | 250 kts | 224° |
| 2026-04-16 14:18 | 56.02395 | -3.90518 | 19957 ft | 250 kts | 224° |
| 2026-04-16 14:18 | 56.00972 | -3.92319 | 19957 ft | 250 kts | 224° |
| 2026-04-16 14:18 | 55.99553 | -3.94110 | 19957 ft | 249 kts | 224° |
| 2026-04-16 14:19 | 55.98134 | -3.95901 | 19957 ft | 250 kts | 224° |
| 2026-04-16 14:19 | 55.96716 | -3.97690 | 19957 ft | 250 kts | 224° |
| 2026-04-16 14:19 | 55.95293 | -3.99482 | 19957 ft | 250 kts | 224° |
| 2026-04-16 14:19 | 55.93889 | -4.01248 | 19958 ft | 250 kts | 224° |
| 2026-04-16 14:20 | 55.92462 | -4.03044 | 19958 ft | 250 kts | 224° |
| 2026-04-16 14:20 | 55.91036 | -4.04835 | 19958 ft | 250 kts | 224° |
| 2026-04-16 14:20 | 55.89610 | -4.06625 | 19958 ft | 250 kts | 224° |
| 2026-04-16 14:20 | 55.88187 | -4.08408 | 19958 ft | 250 kts | 224° |
| 2026-04-16 14:21 | 55.86763 | -4.10192 | 19958 ft | 250 kts | 224° |
| 2026-04-16 14:21 | 55.85341 | -4.11974 | 19958 ft | 250 kts | 224° |
| 2026-04-16 14:21 | 55.83917 | -4.13754 | 19958 ft | 250 kts | 224° |
| 2026-04-16 14:21 | 55.82493 | -4.15533 | 19958 ft | 250 kts | 224° |
| 2026-04-16 14:22 | 55.81067 | -4.17314 | 19957 ft | 250 kts | 224° |
| 2026-04-16 14:22 | 55.79663 | -4.19063 | 19958 ft | 250 kts | 224° |
| 2026-04-16 14:22 | 55.78239 | -4.20839 | 19959 ft | 250 kts | 224° |
| 2026-04-16 14:22 | 55.76807 | -4.22620 | 19959 ft | 251 kts | 224° |
| 2026-04-16 14:23 | 55.75375 | -4.24404 | 19958 ft | 251 kts | 223° |
| 2026-04-16 14:23 | 55.73944 | -4.26180 | 19958 ft | 251 kts | 223° |
| 2026-04-16 14:23 | 55.72513 | -4.27955 | 19958 ft | 250 kts | 223° |
| 2026-04-16 14:23 | 55.71090 | -4.29723 | 19959 ft | 250 kts | 223° |
| 2026-04-16 14:24 | 55.69681 | -4.31470 | 19959 ft | 250 kts | 223° |
| 2026-04-16 14:24 | 55.68255 | -4.33231 | 19959 ft | 250 kts | 223° |
| 2026-04-16 14:24 | 55.66823 | -4.35003 | 19958 ft | 250 kts | 223° |
| 2026-04-16 14:24 | 55.65401 | -4.36765 | 19959 ft | 250 kts | 223° |
| 2026-04-16 14:25 | 55.63968 | -4.38530 | 19958 ft | 251 kts | 223° |
| 2026-04-16 14:25 | 55.62539 | -4.40296 | 19958 ft | 251 kts | 223° |
| 2026-04-16 14:25 | 55.61102 | -4.42063 | 19958 ft | 251 kts | 223° |
| 2026-04-16 14:25 | 55.59666 | -4.43833 | 19958 ft | 251 kts | 223° |
| 2026-04-16 14:26 | 55.58232 | -4.45598 | 19958 ft | 251 kts | 223° |
| 2026-04-16 14:26 | 55.56816 | -4.47335 | 19959 ft | 250 kts | 223° |
| 2026-04-16 14:26 | 55.55389 | -4.49091 | 19958 ft | 250 kts | 223° |
| 2026-04-16 14:26 | 55.53959 | -4.50844 | 19958 ft | 250 kts | 223° |
| 2026-04-16 14:27 | 55.52525 | -4.52602 | 19959 ft | 250 kts | 223° |
| 2026-04-16 14:27 | 55.51094 | -4.54355 | 19960 ft | 251 kts | 223° |
| 2026-04-16 14:27 | 55.49655 | -4.56117 | 19960 ft | 251 kts | 223° |
| 2026-04-16 14:27 | 55.48215 | -4.57876 | 19960 ft | 251 kts | 223° |
| 2026-04-16 14:28 | 55.46780 | -4.59633 | 19960 ft | 251 kts | 223° |
| 2026-04-16 14:28 | 55.45343 | -4.61379 | 19960 ft | 251 kts | 222° |